createdAt,value
2023-04-27T00:00:03.161Z,1004.4
2023-04-27T00:01:04.080Z,1004.4
2023-04-27T00:02:05.165Z,1004.4
2023-04-27T00:03:06.384Z,1004.3
2023-04-27T00:04:07.103Z,1004.3
2023-04-27T00:05:08.213Z,1004.3
2023-04-27T00:06:09.209Z,1004.3
2023-04-27T00:07:10.030Z,1004.4
2023-04-27T00:08:11.057Z,1004.3
2023-04-27T00:09:17.692Z,1004.3
2023-04-27T00:10:19.096Z,1004.3
2023-04-27T00:11:20.146Z,1004.3
2023-04-27T00:12:21.238Z,1004.3
2023-04-27T00:13:22.177Z,1004.3
2023-04-27T00:14:23.106Z,1004.3
2023-04-27T00:15:24.097Z,1004.3
2023-04-27T00:16:25.121Z,1004.3
2023-04-27T00:17:26.201Z,1004.4
2023-04-27T00:18:27.084Z,1004.3
2023-04-27T00:19:28.020Z,1004.3
2023-04-27T00:20:29.118Z,1004.3
2023-04-27T00:21:30.012Z,1004.3
2023-04-27T00:22:31.060Z,1004.3
2023-04-27T00:23:32.060Z,1004.3
2023-04-27T00:24:33.099Z,1004.3
2023-04-27T00:25:34.058Z,1004.3
2023-04-27T00:26:35.622Z,1004.3
2023-04-27T00:27:37.160Z,1004.4
2023-04-27T00:28:38.083Z,1004.3
2023-04-27T00:29:39.078Z,1004.3
2023-04-27T00:30:40.107Z,1004.3
2023-04-27T00:31:41.084Z,1004.3
2023-04-27T00:32:42.123Z,1004.3
2023-04-27T00:33:43.095Z,1004.3
2023-04-27T00:34:44.117Z,1004.3
2023-04-27T00:35:45.115Z,1004.3
2023-04-27T00:36:46.176Z,1004.3
2023-04-27T00:37:47.098Z,1004.3
2023-04-27T00:38:48.094Z,1004.3
2023-04-27T00:39:49.101Z,1004.3
2023-04-27T00:40:50.143Z,1004.3
2023-04-27T00:41:51.100Z,1004.4
2023-04-27T00:42:52.086Z,1004.3
2023-04-27T00:43:53.086Z,1004.3
2023-04-27T00:44:54.098Z,1004.3
2023-04-27T00:45:55.122Z,1004.3
2023-04-27T00:46:56.147Z,1004.3
2023-04-27T00:47:57.179Z,1004.3
2023-04-27T00:48:58.099Z,1004.3
2023-04-27T00:49:59.078Z,1004.3
2023-04-27T00:51:00.099Z,1004.4
2023-04-27T00:52:01.172Z,1004.3
2023-04-27T00:53:02.155Z,1004.4
2023-04-27T00:54:03.078Z,1004.4
2023-04-27T00:55:04.169Z,1004.3
2023-04-27T00:56:05.067Z,1004.3
2023-04-27T00:57:06.162Z,1004.3
2023-04-27T00:58:07.159Z,1004.4
2023-04-27T00:59:08.140Z,1004.3
2023-04-27T01:00:09.146Z,1004.4
2023-04-27T01:01:10.079Z,1004.4
2023-04-27T01:02:11.109Z,1004.4
2023-04-27T01:03:12.151Z,1004.3
2023-04-27T01:04:13.727Z,1004.4
2023-04-27T01:05:15.251Z,1004.3
2023-04-27T01:06:17.119Z,1004.4
2023-04-27T01:07:18.083Z,1004.4
2023-04-27T01:08:19.094Z,1004.4
2023-04-27T01:09:20.140Z,1004.4
2023-04-27T01:10:21.195Z,1004.3
2023-04-27T01:11:22.123Z,1004.4
2023-04-27T01:12:23.121Z,1004.4
2023-04-27T01:13:24.086Z,1004.4
2023-04-27T01:14:25.055Z,1004.3
2023-04-27T01:15:26.136Z,1004.4
2023-04-27T01:16:27.126Z,1004.4
2023-04-27T01:17:28.167Z,1004.4
2023-04-27T01:18:29.195Z,1004.4
2023-04-27T01:19:30.055Z,1004.4
2023-04-27T01:20:31.120Z,1004.4
2023-04-27T01:21:32.116Z,1004.4
2023-04-27T01:22:33.143Z,1004.5
2023-04-27T01:23:34.096Z,1004.4
2023-04-27T01:24:35.637Z,1004.4
2023-04-27T01:25:37.235Z,1004.4
2023-04-27T01:26:38.073Z,1004.4
2023-04-27T01:27:39.099Z,1004.4
2023-04-27T01:28:40.115Z,1004.4
2023-04-27T01:29:41.043Z,1004.4
2023-04-27T01:30:42.100Z,1004.4
2023-04-27T01:31:43.156Z,1004.4
2023-04-27T01:32:44.123Z,1004.4
2023-04-27T01:33:45.102Z,1004.4
2023-04-27T01:34:46.143Z,1004.4
2023-04-27T01:35:47.096Z,1004.4
2023-04-27T01:36:48.074Z,1004.4
2023-04-27T01:37:49.096Z,1004.4
2023-04-27T01:38:50.097Z,1004.4
2023-04-27T01:39:51.182Z,1004.5
2023-04-27T01:40:52.156Z,1004.5
2023-04-27T01:41:53.137Z,1004.5
2023-04-27T01:42:54.170Z,1004.5
2023-04-27T01:43:55.126Z,1004.4
2023-04-27T01:44:56.179Z,1004.4
2023-04-27T01:45:57.207Z,1004.4
2023-04-27T01:46:58.106Z,1004.4
2023-04-27T01:47:59.176Z,1004.5
2023-04-27T01:49:00.136Z,1004.4
2023-04-27T01:50:01.366Z,1004.5
2023-04-27T01:51:02.081Z,1004.5
2023-04-27T01:52:03.130Z,1004.5
2023-04-27T01:53:04.201Z,1004.5
2023-04-27T01:54:05.112Z,1004.5
2023-04-27T01:55:06.208Z,1004.5
2023-04-27T01:56:07.111Z,1004.5
2023-04-27T01:57:08.149Z,1004.5
2023-04-27T01:58:09.149Z,1004.5
2023-04-27T01:59:10.149Z,1004.5
2023-04-27T02:00:11.195Z,1004.5
2023-04-27T02:01:12.181Z,1004.6
2023-04-27T02:02:13.137Z,1004.5
2023-04-27T02:03:14.240Z,1004.7
2023-04-27T02:04:15.420Z,1004.6
2023-04-27T02:05:16.226Z,1004.6
2023-04-27T02:06:17.208Z,1004.6
2023-04-27T02:07:18.122Z,1004.6
2023-04-27T02:08:19.149Z,1004.6
2023-04-27T02:09:20.146Z,1004.6
2023-04-27T02:10:21.201Z,1004.5
2023-04-27T02:11:22.262Z,1004.6
2023-04-27T02:12:23.159Z,1004.5
2023-04-27T02:13:24.200Z,1004.6
2023-04-27T02:14:25.137Z,1004.5
2023-04-27T02:15:26.179Z,1004.5
2023-04-27T02:16:27.183Z,1004.6
2023-04-27T02:17:28.151Z,1004.5
2023-04-27T02:18:29.119Z,1004.6
2023-04-27T02:19:30.103Z,1004.5
2023-04-27T02:20:31.111Z,1004.6
2023-04-27T02:21:32.140Z,1004.6
2023-04-27T02:22:33.142Z,1004.6
2023-04-27T02:23:34.159Z,1004.6
2023-04-27T02:24:35.719Z,1004.6
2023-04-27T02:25:37.165Z,1004.6
2023-04-27T02:26:38.156Z,1004.7
2023-04-27T02:27:39.181Z,1004.6
2023-04-27T02:28:40.173Z,1004.6
2023-04-27T02:29:41.187Z,1004.6
2023-04-27T02:30:42.302Z,1004.6
2023-04-27T02:31:43.157Z,1004.6
2023-04-27T02:32:44.205Z,1004.6
2023-04-27T02:33:45.119Z,1004.6
2023-04-27T02:34:46.198Z,1004.6
2023-04-27T02:35:47.138Z,1004.7
2023-04-27T02:36:48.250Z,1004.7
2023-04-27T02:37:49.170Z,1004.6
2023-04-27T02:38:50.136Z,1004.6
2023-04-27T02:39:51.158Z,1004.6
2023-04-27T02:40:52.118Z,1004.7
2023-04-27T02:41:53.164Z,1004.7
2023-04-27T02:42:54.180Z,1004.7
2023-04-27T02:43:55.361Z,1004.6
2023-04-27T02:44:56.258Z,1004.7
2023-04-27T02:45:57.235Z,1004.6
2023-04-27T02:46:58.225Z,1004.7
2023-04-27T02:47:59.194Z,1004.7
2023-04-27T02:49:00.167Z,1004.7
2023-04-27T02:50:01.216Z,1004.7
2023-04-27T02:51:02.218Z,1004.7
2023-04-27T02:52:03.268Z,1004.7
2023-04-27T02:53:04.157Z,1004.7
2023-04-27T02:54:05.137Z,1004.7
2023-04-27T02:55:06.178Z,1004.7
2023-04-27T02:56:07.177Z,1004.7
2023-04-27T02:57:08.207Z,1004.7
2023-04-27T02:58:09.137Z,1004.7
2023-04-27T02:59:10.208Z,1004.7
2023-04-27T03:00:11.236Z,1004.7
2023-04-27T03:01:12.112Z,1004.7
2023-04-27T03:02:13.196Z,1004.7
2023-04-27T03:03:14.378Z,1004.7
2023-04-27T03:04:15.421Z,1004.7
2023-04-27T03:05:16.209Z,1004.7
2023-04-27T03:06:17.218Z,1004.7
2023-04-27T03:07:18.244Z,1004.7
2023-04-27T03:08:19.274Z,1004.8
2023-04-27T03:09:20.157Z,1004.7
2023-04-27T03:10:21.186Z,1004.7
2023-04-27T03:11:22.136Z,1004.8
2023-04-27T03:12:23.154Z,1004.8
2023-04-27T03:13:24.184Z,1004.7
2023-04-27T03:14:25.535Z,1004.7
2023-04-27T03:15:26.314Z,1004.7
2023-04-27T03:16:27.198Z,1004.7
2023-04-27T03:17:28.197Z,1004.7
2023-04-27T03:18:29.156Z,1004.7
2023-04-27T03:19:30.127Z,1004.7
2023-04-27T03:20:31.184Z,1004.7
2023-04-27T03:21:32.095Z,1004.8
2023-04-27T03:22:33.138Z,1004.8
2023-04-27T03:23:34.099Z,1004.8
2023-04-27T03:24:35.215Z,1004.1
2023-04-27T03:25:36.164Z,1004.7
2023-04-27T03:26:37.216Z,1004.7
2023-04-27T03:27:38.166Z,1004.7
2023-04-27T03:28:39.225Z,1004.8
2023-04-27T03:29:40.300Z,1004.8
2023-04-27T03:30:41.158Z,1004.8
2023-04-27T03:31:42.211Z,1004.8
2023-04-27T03:32:44.393Z,1004.8
2023-04-27T03:33:44.155Z,1004.8
2023-04-27T03:34:45.182Z,1004.8
2023-04-27T03:35:46.154Z,1004.8
2023-04-27T03:36:47.734Z,1004.8
2023-04-27T03:37:49.175Z,1004.8
2023-04-27T03:38:50.233Z,1004.9
2023-04-27T03:39:51.181Z,1004.9
2023-04-27T03:40:52.217Z,1004.9
2023-04-27T03:41:53.200Z,1004.9
2023-04-27T03:42:54.424Z,1004.9
2023-04-27T03:43:55.176Z,1004.9
2023-04-27T03:44:56.212Z,1005
2023-04-27T03:45:57.759Z,1004.9
2023-04-27T03:46:59.215Z,1004.9
2023-04-27T03:48:00.550Z,1004.9
2023-04-27T03:49:02.155Z,1004.9
2023-04-27T03:50:03.200Z,1005
2023-04-27T03:51:04.175Z,1004.9
2023-04-27T03:52:05.238Z,1004.9
2023-04-27T03:53:06.176Z,1004.9
2023-04-27T03:54:07.178Z,1005
2023-04-27T03:55:08.194Z,1005
2023-04-27T03:56:09.189Z,1005
2023-04-27T03:57:10.216Z,1005
2023-04-27T03:58:11.362Z,1005
2023-04-27T03:59:12.344Z,1005
2023-04-27T04:00:13.182Z,1005
2023-04-27T04:01:14.157Z,1005
2023-04-27T04:02:15.235Z,1005
2023-04-27T04:03:16.474Z,1005
2023-04-27T04:04:17.402Z,1004.9
2023-04-27T04:05:18.275Z,1005
2023-04-27T04:06:19.175Z,1005
2023-04-27T04:07:20.236Z,1005.1
2023-04-27T04:08:21.161Z,1005.1
2023-04-27T04:09:23.800Z,1005.1
2023-04-27T04:10:23.297Z,1005.1
2023-04-27T04:11:25.157Z,1005
2023-04-27T04:12:26.198Z,1005.1
2023-04-27T04:13:27.194Z,1005.1
2023-04-27T04:14:28.216Z,1005.1
2023-04-27T04:15:29.325Z,1005.1
2023-04-27T04:16:30.211Z,1005.1
2023-04-27T04:17:31.308Z,1005.1
2023-04-27T04:18:32.158Z,1005.1
2023-04-27T04:19:33.634Z,1005.1
2023-04-27T04:20:35.343Z,1005.1
2023-04-27T04:21:36.216Z,1005.1
2023-04-27T04:22:37.196Z,1005.1
2023-04-27T04:23:38.977Z,1005.1
2023-04-27T04:24:40.293Z,1005.1
2023-04-27T04:25:41.160Z,1005.1
2023-04-27T04:26:42.178Z,1005.1
2023-04-27T04:27:43.456Z,1005.1
2023-04-27T04:28:44.207Z,1004.5
2023-04-27T04:29:45.201Z,1005
2023-04-27T04:30:46.337Z,1005.2
2023-04-27T04:31:47.268Z,1005.3
2023-04-27T04:32:48.392Z,1005.2
2023-04-27T04:33:49.221Z,1005.2
2023-04-27T04:34:50.194Z,1005.3
2023-04-27T04:35:51.176Z,1005.3
2023-04-27T04:36:52.317Z,1005.3
2023-04-27T04:37:53.203Z,1005.3
2023-04-27T04:38:54.154Z,1005.4
2023-04-27T04:39:55.175Z,1005.4
2023-04-27T04:40:57.237Z,1005.4
2023-04-27T04:41:58.275Z,1005.4
2023-04-27T04:42:59.262Z,1005.4
2023-04-27T04:44:00.681Z,1005.4
2023-04-27T04:45:02.855Z,1005.5
2023-04-27T04:46:04.851Z,1005.5
2023-04-27T04:47:06.278Z,1005.4
2023-04-27T04:48:07.262Z,1005.4
2023-04-27T04:49:08.240Z,1005.4
2023-04-27T04:50:09.181Z,1005.5
2023-04-27T04:51:10.237Z,1005.5
2023-04-27T04:52:11.206Z,1005.4
2023-04-27T04:53:12.254Z,1005.4
2023-04-27T04:54:13.175Z,1005.5
2023-04-27T04:55:14.196Z,1005.4
2023-04-27T04:56:16.015Z,1005.5
2023-04-27T04:57:17.223Z,1005.5
2023-04-27T04:58:18.306Z,1005.5
2023-04-27T04:59:19.510Z,1005.5
2023-04-27T05:00:22.043Z,1005.5
2023-04-27T05:01:23.300Z,1005.5
2023-04-27T05:02:24.213Z,1005.4
2023-04-27T05:03:25.428Z,1005.6
2023-04-27T05:04:26.404Z,1005.6
2023-04-27T05:05:27.196Z,1005.6
2023-04-27T05:06:28.219Z,1005.6
2023-04-27T05:07:29.802Z,1005.6
2023-04-27T05:08:31.296Z,1005.6
2023-04-27T05:09:32.185Z,1005.6
2023-04-27T05:10:33.239Z,1005.6
2023-04-27T05:11:34.255Z,1005.6
2023-04-27T05:12:35.180Z,1005.6
2023-04-27T05:13:36.796Z,1005.6
2023-04-27T05:14:38.178Z,1005.6
2023-04-27T05:15:41.918Z,1005.6
2023-04-27T05:16:43.319Z,1005.6
2023-04-27T05:17:44.258Z,1005.6
2023-04-27T05:18:45.195Z,1005.6
2023-04-27T05:19:46.160Z,1005.6
2023-04-27T05:20:47.355Z,1005.6
2023-04-27T05:21:48.172Z,1005.6
2023-04-27T05:22:49.325Z,1005.6
2023-04-27T05:23:50.212Z,1005.6
2023-04-27T05:24:51.215Z,1005.7
2023-04-27T05:25:52.338Z,1005.6
2023-04-27T05:26:53.268Z,1005.7
2023-04-27T05:27:54.341Z,1005.7
2023-04-27T05:28:55.788Z,1005.7
2023-04-27T05:29:57.338Z,1005.6
2023-04-27T05:30:58.241Z,1005.7
2023-04-27T05:31:59.382Z,1005.7
2023-04-27T05:33:00.265Z,1005.6
2023-04-27T05:34:01.183Z,1005.6
2023-04-27T05:35:02.224Z,1005.7
2023-04-27T05:36:03.225Z,1005.6
2023-04-27T05:37:04.959Z,1005.6
2023-04-27T05:38:06.238Z,1005.6
2023-04-27T05:39:07.276Z,1005.7
2023-04-27T05:40:08.269Z,1005.7
2023-04-27T05:41:09.231Z,1005.7
2023-04-27T05:42:10.689Z,1005.7
2023-04-27T05:43:12.281Z,1005.7
2023-04-27T05:44:13.242Z,1005.7
2023-04-27T05:45:14.260Z,1005.7
2023-04-27T05:46:15.223Z,1005.7
2023-04-27T05:47:16.244Z,1005.8
2023-04-27T05:48:17.337Z,1005.7
2023-04-27T05:49:18.220Z,1005.7
2023-04-27T05:50:19.242Z,1005.9
2023-04-27T05:51:20.264Z,1005.8
2023-04-27T05:52:21.223Z,1005.8
2023-04-27T05:53:22.258Z,1005.8
2023-04-27T05:54:23.259Z,1005.8
2023-04-27T05:55:24.283Z,1005.8
2023-04-27T05:56:25.201Z,1005.8
2023-04-27T05:57:26.200Z,1005.9
2023-04-27T05:58:27.309Z,1005.9
2023-04-27T05:59:28.208Z,1005.9
2023-04-27T06:00:29.237Z,1005.9
2023-04-27T06:01:30.456Z,1005.8
2023-04-27T06:02:31.308Z,1005.9
2023-04-27T06:03:32.402Z,1005.9
2023-04-27T06:04:33.315Z,1005.9
2023-04-27T06:05:34.340Z,1005.9
2023-04-27T06:06:35.219Z,1005.9
2023-04-27T06:07:36.342Z,1005.7
2023-04-27T06:08:37.279Z,1005.8
2023-04-27T06:09:38.509Z,1005.9
2023-04-27T06:10:40.280Z,1005.9
2023-04-27T06:11:41.265Z,1005.8
2023-04-27T06:12:43.463Z,1005.8
2023-04-27T06:13:44.239Z,1005.8
2023-04-27T06:14:45.260Z,1005.8
2023-04-27T06:15:46.311Z,1005.8
2023-04-27T06:16:47.321Z,1005.8
2023-04-27T06:17:48.299Z,1005.8
2023-04-27T06:18:49.299Z,1005.5
2023-04-27T06:19:50.263Z,1005.8
2023-04-27T06:20:51.325Z,1005.8
2023-04-27T06:21:53.360Z,1005.8
2023-04-27T06:22:54.430Z,1005.9
2023-04-27T06:23:55.279Z,1005.8
2023-04-27T06:24:56.893Z,1005.8
2023-04-27T06:25:58.259Z,1005.8
2023-04-27T06:26:59.630Z,1005.8
2023-04-27T06:28:00.238Z,1005.8
2023-04-27T06:29:01.317Z,1005.8
2023-04-27T06:30:02.263Z,1005.8
2023-04-27T06:31:03.259Z,1005.8
2023-04-27T06:32:04.263Z,1005.8
2023-04-27T06:33:05.318Z,1005.8
2023-04-27T06:34:06.304Z,1005.8
2023-04-27T06:35:07.265Z,1006
2023-04-27T06:36:08.203Z,1005.9
2023-04-27T06:37:09.318Z,1005.9
2023-04-27T06:38:10.238Z,1005.9
2023-04-27T06:39:11.310Z,1005.9
2023-04-27T06:40:12.340Z,1005.8
2023-04-27T06:41:13.213Z,1005.9
2023-04-27T06:42:14.348Z,1005.9
2023-04-27T06:43:15.248Z,1005.9
2023-04-27T06:44:16.400Z,1006
2023-04-27T06:45:18.324Z,1005.9
2023-04-27T06:46:19.270Z,1005.9
2023-04-27T06:47:20.896Z,1005.9
2023-04-27T06:48:22.366Z,1005.9
2023-04-27T06:49:23.259Z,1005.9
2023-04-27T06:50:24.301Z,1005.9
2023-04-27T06:51:25.217Z,1005.9
2023-04-27T06:52:26.281Z,1005.9
2023-04-27T06:53:27.280Z,1005.8
2023-04-27T06:54:28.257Z,1005.9
2023-04-27T06:55:29.376Z,1005.8
2023-04-27T06:56:30.238Z,1005.8
2023-04-27T06:57:31.557Z,1005.9
2023-04-27T06:58:32.257Z,1005.8
2023-04-27T06:59:33.280Z,1005.7
2023-04-27T07:00:34.255Z,1005.7
2023-04-27T07:01:35.363Z,1005.7
2023-04-27T07:02:36.424Z,1005.7
2023-04-27T07:03:37.592Z,1005.7
2023-04-27T07:04:38.616Z,1005.8
2023-04-27T07:05:39.242Z,1005.7
2023-04-27T07:06:40.315Z,1005.7
2023-04-27T07:07:41.335Z,1005.7
2023-04-27T07:08:42.277Z,1005.7
2023-04-27T07:09:43.298Z,1005.7
2023-04-27T07:10:44.278Z,1005.7
2023-04-27T07:11:45.331Z,1005.7
2023-04-27T07:12:46.482Z,1005.7
2023-04-27T07:13:47.306Z,1005.7
2023-04-27T07:14:48.301Z,1005.8
2023-04-27T07:15:49.361Z,1005.7
2023-04-27T07:16:50.322Z,1005.7
2023-04-27T07:17:51.354Z,1005.7
2023-04-27T07:18:52.320Z,1005.7
2023-04-27T07:19:53.301Z,1005.8
2023-04-27T07:20:57.367Z,1005.7
2023-04-27T07:21:58.278Z,1005.8
2023-04-27T07:22:59.274Z,1005.8
2023-04-27T07:24:00.261Z,1005.8
2023-04-27T07:25:01.256Z,1005.7
2023-04-27T07:26:02.416Z,1005.8
2023-04-27T07:27:03.305Z,1005.8
2023-04-27T07:28:04.364Z,1005.8
2023-04-27T07:29:11.403Z,1005.8
2023-04-27T07:30:06.299Z,1005.7
2023-04-27T07:31:07.383Z,1005.7
2023-04-27T07:32:08.406Z,1005.7
2023-04-27T07:33:09.305Z,1005.7
2023-04-27T07:34:10.352Z,1005.7
2023-04-27T07:35:11.328Z,1005.7
2023-04-27T07:36:12.317Z,1005.7
2023-04-27T07:37:13.661Z,1005.7
2023-04-27T07:38:14.303Z,1005.7
2023-04-27T07:39:15.460Z,1005.6
2023-04-27T07:40:16.571Z,1005.7
2023-04-27T07:41:18.322Z,1005.7
2023-04-27T07:42:19.305Z,1005.7
2023-04-27T07:43:20.343Z,1005.7
2023-04-27T07:44:21.324Z,1005.7
2023-04-27T07:45:22.696Z,1005.7
2023-04-27T07:46:24.346Z,1005.7
2023-04-27T07:47:25.288Z,1005.7
2023-04-27T07:48:26.358Z,1005.7
2023-04-27T07:49:27.284Z,1005.7
2023-04-27T07:50:28.305Z,1005.7
2023-04-27T07:51:29.344Z,1005.7
2023-04-27T07:52:30.553Z,1005.8
2023-04-27T07:53:31.322Z,1005.8
2023-04-27T07:54:32.534Z,1005.8
2023-04-27T07:55:33.313Z,1005.8
2023-04-27T07:56:34.334Z,1005.8
2023-04-27T07:57:35.312Z,1005.8
2023-04-27T07:58:36.365Z,1005.8
2023-04-27T07:59:37.318Z,1005.8
2023-04-27T08:00:38.737Z,1005.8
2023-04-27T08:01:41.023Z,1005.8
2023-04-27T08:02:42.615Z,1005.8
2023-04-27T08:03:43.538Z,1005.8
2023-04-27T08:04:44.597Z,1005.9
2023-04-27T08:05:45.595Z,1005.8
2023-04-27T08:06:46.972Z,1005.8
2023-04-27T08:07:47.713Z,1005.7
2023-04-27T08:08:48.355Z,1005.7
2023-04-27T08:09:49.273Z,1005.8
2023-04-27T08:10:50.348Z,1005.8
2023-04-27T08:11:51.321Z,1005.7
2023-04-27T08:12:52.292Z,1005.8
2023-04-27T08:13:53.313Z,1005.8
2023-04-27T08:14:54.422Z,1005.8
2023-04-27T08:15:55.382Z,1005.8
2023-04-27T08:16:56.386Z,1005.8
2023-04-27T08:17:57.338Z,1005.3
2023-04-27T08:18:59.953Z,1005.7
2023-04-27T08:20:00.411Z,1005.8
2023-04-27T08:21:01.306Z,1005.9
2023-04-27T08:22:02.289Z,1005.8
2023-04-27T08:23:03.941Z,1005.8
2023-04-27T08:24:05.414Z,1005.8
2023-04-27T08:25:06.300Z,1005.8
2023-04-27T08:26:07.482Z,1005.9
2023-04-27T08:27:08.262Z,1005.9
2023-04-27T08:28:09.753Z,1005.8
2023-04-27T08:29:19.782Z,1005.9
2023-04-27T08:30:12.335Z,1005.9
2023-04-27T08:31:13.372Z,1005.8
2023-04-27T08:32:14.359Z,1005.8
2023-04-27T08:33:15.388Z,1005.8
2023-04-27T08:34:16.418Z,1005.8
2023-04-27T08:35:17.452Z,1005.8
2023-04-27T08:36:18.312Z,1005.9
2023-04-27T08:37:19.315Z,1005.9
2023-04-27T08:38:20.321Z,1005.9
2023-04-27T08:39:21.314Z,1006
2023-04-27T08:40:22.446Z,1005.9
2023-04-27T08:41:23.352Z,1005.9
2023-04-27T08:42:24.304Z,1006
2023-04-27T08:43:25.295Z,1006
2023-04-27T08:44:26.304Z,1005.9
2023-04-27T08:45:27.292Z,1006
2023-04-27T08:46:28.358Z,1006
2023-04-27T08:47:41.551Z,1006
2023-04-27T08:48:30.369Z,1006
2023-04-27T08:49:31.629Z,1006
2023-04-27T08:50:33.417Z,1006
2023-04-27T08:51:34.353Z,1006
2023-04-27T08:52:35.925Z,1006
2023-04-27T08:53:37.433Z,1006
2023-04-27T08:54:38.416Z,1006
2023-04-27T08:55:39.278Z,1006
2023-04-27T08:56:40.368Z,1005.9
2023-04-27T08:57:41.329Z,1005.9
2023-04-27T08:58:42.344Z,1006
2023-04-27T08:59:44.367Z,1005.9
2023-04-27T09:00:45.507Z,1005.9
2023-04-27T09:01:46.456Z,1005.9
2023-04-27T09:02:47.639Z,1006
2023-04-27T09:03:48.461Z,1005.9
2023-04-27T09:04:49.446Z,1005.9
2023-04-27T09:06:03.343Z,1005.9
2023-04-27T09:06:52.462Z,1005.9
2023-04-27T09:07:53.435Z,1006
2023-04-27T09:08:54.304Z,1005.9
2023-04-27T09:09:55.401Z,1005.9
2023-04-27T09:10:56.991Z,1005.8
2023-04-27T09:11:58.355Z,1005.8
2023-04-27T09:12:59.336Z,1005.9
2023-04-27T09:14:00.641Z,1005.9
2023-04-27T09:15:02.155Z,1005.9
2023-04-27T09:16:03.375Z,1005.8
2023-04-27T09:17:04.357Z,1005.8
2023-04-27T09:18:05.363Z,1005.8
2023-04-27T09:19:06.385Z,1005.8
2023-04-27T09:20:07.357Z,1006.1
2023-04-27T09:21:08.408Z,1005.9
2023-04-27T09:22:09.356Z,1005.9
2023-04-27T09:23:10.326Z,1005.8
2023-04-27T09:24:11.396Z,1005.8
2023-04-27T09:25:12.337Z,1005.8
2023-04-27T09:26:13.299Z,1005.8
2023-04-27T09:27:14.398Z,1005.8
2023-04-27T09:28:15.343Z,1005.7
2023-04-27T09:29:16.348Z,1005.8
2023-04-27T09:30:17.437Z,1005.9
2023-04-27T09:31:18.449Z,1005.8
2023-04-27T09:32:19.320Z,1005.8
2023-04-27T09:33:20.383Z,1005.8
2023-04-27T09:34:21.377Z,1005.8
2023-04-27T09:35:22.510Z,1005.8
2023-04-27T09:36:23.458Z,1005.8
2023-04-27T09:37:24.559Z,1005.8
2023-04-27T09:38:25.370Z,1005.8
2023-04-27T09:39:26.358Z,1005.8
2023-04-27T09:40:27.359Z,1005.7
2023-04-27T09:41:28.379Z,1005.8
2023-04-27T09:42:29.456Z,1005.7
2023-04-27T09:43:30.338Z,1005.7
2023-04-27T09:44:31.612Z,1005.7
2023-04-27T09:45:32.382Z,1005.7
2023-04-27T09:46:33.594Z,1005.7
2023-04-27T09:47:34.512Z,1005.8
2023-04-27T09:48:35.399Z,1005.8
2023-04-27T09:49:36.842Z,1005.7
2023-04-27T09:50:38.401Z,1005.7
2023-04-27T09:51:39.405Z,1005.7
2023-04-27T09:52:40.374Z,1005.7
2023-04-27T09:53:41.826Z,1005.7
2023-04-27T09:54:43.415Z,1005.7
2023-04-27T09:55:44.397Z,1005.8
2023-04-27T09:56:45.654Z,1005.8
2023-04-27T09:57:47.413Z,1005.7
2023-04-27T09:58:48.674Z,1005.8
2023-04-27T09:59:50.358Z,1005.8
2023-04-27T10:00:51.490Z,1005.8
2023-04-27T10:01:52.637Z,1005.8
2023-04-27T10:02:53.912Z,1005.8
2023-04-27T10:03:55.565Z,1005.8
2023-04-27T10:04:56.514Z,1005.7
2023-04-27T10:05:57.366Z,1005.7
2023-04-27T10:06:58.331Z,1005.7
2023-04-27T10:07:59.397Z,1005.7
2023-04-27T10:09:00.357Z,1005.8
2023-04-27T10:10:01.353Z,1005.8
2023-04-27T10:11:02.420Z,1005.8
2023-04-27T10:12:03.414Z,1005.8
2023-04-27T10:13:04.356Z,1005.8
2023-04-27T10:14:05.370Z,1005.8
2023-04-27T10:15:06.345Z,1005.8
2023-04-27T10:16:07.454Z,1005.7
2023-04-27T10:17:08.392Z,1005.7
2023-04-27T10:18:09.408Z,1005.7
2023-04-27T10:19:10.408Z,1005.8
2023-04-27T10:20:11.395Z,1005.8
2023-04-27T10:21:12.357Z,1005.8
2023-04-27T10:22:13.402Z,1005.8
2023-04-27T10:23:14.517Z,1005.8
2023-04-27T10:24:15.433Z,1005.8
2023-04-27T10:25:17.146Z,1005.8
2023-04-27T10:26:18.461Z,1005.8
2023-04-27T10:27:19.573Z,1005.8
2023-04-27T10:28:20.438Z,1005.8
2023-04-27T10:29:21.344Z,1005.8
2023-04-27T10:30:22.554Z,1005.8
2023-04-27T10:31:23.387Z,1005.7
2023-04-27T10:32:24.385Z,1005.7
2023-04-27T10:33:25.418Z,1005.7
2023-04-27T10:34:26.468Z,1005.7
2023-04-27T10:35:27.361Z,1005.7
2023-04-27T10:36:28.340Z,1005.6
2023-04-27T10:37:29.752Z,1005.6
2023-04-27T10:38:33.250Z,1005.7
2023-04-27T10:39:46.752Z,1005.7
2023-04-27T10:40:36.398Z,1005.7
2023-04-27T10:41:37.380Z,1006
2023-04-27T10:42:38.418Z,1005.8
2023-04-27T10:43:39.439Z,1005.8
2023-04-27T10:44:40.363Z,1005.7
2023-04-27T10:45:41.402Z,1005.7
2023-04-27T10:46:42.438Z,1005.8
2023-04-27T10:47:45.538Z,1005.8
2023-04-27T10:48:46.619Z,1005.7
2023-04-27T10:49:47.401Z,1005.8
2023-04-27T10:50:48.458Z,1005.7
2023-04-27T10:51:49.427Z,1005.7
2023-04-27T10:52:50.500Z,1005.7
2023-04-27T10:53:51.366Z,1005.9
2023-04-27T10:54:52.440Z,1005.9
2023-04-27T10:55:53.465Z,1005.9
2023-04-27T10:56:54.420Z,1005.9
2023-04-27T10:57:55.410Z,1005.9
2023-04-27T10:58:56.380Z,1005.9
2023-04-27T10:59:57.981Z,1005.9
2023-04-27T11:00:59.488Z,1006
2023-04-27T11:02:00.487Z,1006
2023-04-27T11:03:01.459Z,1006
2023-04-27T11:04:02.467Z,1005.9
2023-04-27T11:05:03.452Z,1006
2023-04-27T11:06:04.503Z,1006
2023-04-27T11:07:05.486Z,1006
2023-04-27T11:08:07.322Z,1006.1
2023-04-27T11:09:08.446Z,1006.1
2023-04-27T11:10:09.718Z,1006.1
2023-04-27T11:11:10.437Z,1006.1
2023-04-27T11:12:11.462Z,1006.1
2023-04-27T11:13:12.577Z,1006.2
2023-04-27T11:14:13.557Z,1006.2
2023-04-27T11:15:14.483Z,1006.2
2023-04-27T11:16:15.430Z,1006.2
2023-04-27T11:17:16.358Z,1006.2
2023-04-27T11:18:17.478Z,1006.1
2023-04-27T11:19:18.536Z,1006.1
2023-04-27T11:20:21.339Z,1006.1
2023-04-27T11:21:22.400Z,1006.1
2023-04-27T11:22:23.420Z,1006.1
2023-04-27T11:23:24.464Z,1006.1
2023-04-27T11:24:25.738Z,1006.1
2023-04-27T11:25:27.458Z,1006.1
2023-04-27T11:26:29.325Z,1006.1
2023-04-27T11:27:30.447Z,1006.1
2023-04-27T11:28:31.460Z,1006.2
2023-04-27T11:29:34.436Z,1006.2
2023-04-27T11:30:33.901Z,1006.2
2023-04-27T11:31:35.550Z,1006.2
2023-04-27T11:32:36.757Z,1006.2
2023-04-27T11:33:38.465Z,1006.2
2023-04-27T11:34:39.416Z,1006.1
2023-04-27T11:35:40.523Z,1006.1
2023-04-27T11:36:42.360Z,1006.1
2023-04-27T11:37:43.396Z,1006.2
2023-04-27T11:38:44.455Z,1006.1
2023-04-27T11:39:45.420Z,1006.1
2023-04-27T11:40:46.442Z,1006.1
2023-04-27T11:41:47.438Z,1006.1
2023-04-27T11:42:48.458Z,1006.1
2023-04-27T11:43:49.800Z,1006.2
2023-04-27T11:44:50.438Z,1006.1
2023-04-27T11:45:51.452Z,1006.1
2023-04-27T11:46:52.459Z,1006.1
2023-04-27T11:47:53.653Z,1006.1
2023-04-27T11:48:54.838Z,1006
2023-04-27T11:49:56.718Z,1006.1
2023-04-27T11:50:59.084Z,1006
2023-04-27T11:52:00.420Z,1006
2023-04-27T11:53:01.423Z,1006
2023-04-27T11:54:02.468Z,1006
2023-04-27T11:55:04.283Z,1006
2023-04-27T11:56:05.623Z,1006
2023-04-27T11:57:06.424Z,1006.1
2023-04-27T11:58:07.535Z,1006.1
2023-04-27T11:59:08.395Z,1006.2
2023-04-27T12:00:09.518Z,1006.2
2023-04-27T12:01:10.465Z,1006.2
2023-04-27T12:02:11.551Z,1006.2
2023-04-27T12:03:12.576Z,1006.2
2023-04-27T12:04:13.857Z,1006.2
2023-04-27T12:05:14.856Z,1006.2
2023-04-27T12:06:32.053Z,1006.2
2023-04-27T12:07:16.978Z,1006.2
2023-04-27T12:08:18.460Z,1006.1
2023-04-27T12:09:19.442Z,1006.2
2023-04-27T12:10:20.466Z,1006.1
2023-04-27T12:11:21.481Z,1006.1
2023-04-27T12:12:22.799Z,1006.1
2023-04-27T12:13:23.441Z,1006.1
2023-04-27T12:14:24.444Z,1006.1
2023-04-27T12:15:25.491Z,1006.1
2023-04-27T12:16:26.516Z,1006.2
2023-04-27T12:17:27.473Z,1006.1
2023-04-27T12:18:28.478Z,1006.1
2023-04-27T12:19:29.437Z,1006
2023-04-27T12:20:30.452Z,1006
2023-04-27T12:21:31.459Z,1006.1
2023-04-27T12:22:32.477Z,1006.1
2023-04-27T12:23:33.438Z,1006
2023-04-27T12:24:34.604Z,1006
2023-04-27T12:25:35.419Z,1006
2023-04-27T12:26:36.459Z,1006.1
2023-04-27T12:27:37.559Z,1006
2023-04-27T12:28:38.399Z,1006
2023-04-27T12:29:39.461Z,1006
2023-04-27T12:30:40.499Z,1006
2023-04-27T12:31:41.575Z,1006
2023-04-27T12:32:42.508Z,1006
2023-04-27T12:33:43.403Z,1006
2023-04-27T12:34:44.438Z,1005.9
2023-04-27T12:35:45.411Z,1005.9
2023-04-27T12:36:46.806Z,1005.9
2023-04-27T12:37:47.480Z,1005.9
2023-04-27T12:38:48.420Z,1005.9
2023-04-27T12:39:49.607Z,1005.9
2023-04-27T12:40:51.222Z,1005.9
2023-04-27T12:41:52.386Z,1006
2023-04-27T12:42:53.868Z,1006
2023-04-27T12:43:54.436Z,1006
2023-04-27T12:44:55.618Z,1005.9
2023-04-27T12:45:56.469Z,1005.9